Accueil
METAR-TAF:

METAR-TAF

Aéroports :

Oberpfaffenhofen, Allemagne

latitude: 48-05N, longitude: 011-17E, altitude: 600 m

Observation

Le bulletin a été fait il y a 2 heures et 28 minutes, à 07:50 UTC
Vent 11 kt de est/nord-est
Température -5°C
Humidité 86%
Pression 1016 hPa
Visibilité: 7000 m
Ciel couvert à une hauteur de 1300 ft

METAR: EDMO 240750Z 07011KT 7000 OVC013 M05/M07 Q1016

Heure: 11:18 (10:18 UTC)

Prévision

Le bulletin a été fait il y a 17 heures et 18 minutes, à 17:00 UTC
Prévision valable du 23 à 18 UTC au 24 à 03 UTC
Vent 10 kt de est/nord-est
Visibilité: 8000 m
Ciel couvert à une hauteur de 1400 ft

TAF: EDMO 231700Z 2318/2403 07010KT 8000 OVC014

Observations et prévisions météorologiques de plus de 4000 aéroports (messages METAR et TAF).

Les stations disponibles sont représentées par des disques jaunes et rouges sur la carte.

Passer la souris dessus pour voir le nom de la station.

Cliquer dessus pour voir les observations et prévisions météorologiques.

Pour changer de carte: cliquez sur les boutons verts avec une croix noire pour zoomer, sur le bouton vert avec un tiret pour effectuer un zoom arrière, ou sur les flèches vertes pour les cartes adjacentes.


METAR-TAF: